Time;durP1;ratioP1;P1;durP2;ratioP2;P2;SDS_P1;SDS_P2;PMS_P1;PMS_P2;Temp;Humidity;BMP_temperature;BMP_pressure;BME280_temperature;BME280_humidity;BME280_pressure;Samples;Min_cycle;Max_cycle;Signal;HPM_P1;HPM_P2
2021/10/22 00:00:46;;;;;;;11.40;2.53;;;;;;;6.14;97.85;100000.81;4998680;28;20322;-79
2021/10/22 00:03:14;;;;;;;10.43;2.63;;;;;;;5.98;97.90;100004.16;5010454;28;20087;-81
2021/10/22 00:05:41;;;;;;;9.82;2.28;;;;;;;6.01;98.34;100013.63;5016809;28;20508;-82
2021/10/22 00:08:08;;;;;;;19.15;3.78;;;;;;;5.93;98.86;100019.22;4987938;28;20400;-85
2021/10/22 00:10:35;;;;;;;13.70;2.40;;;;;;;5.91;99.02;100023.66;5008643;28;20144;-84
2021/10/22 00:13:02;;;;;;;15.60;2.65;;;;;;;5.87;99.05;100021.28;4996260;28;20630;-82
2021/10/22 00:15:30;;;;;;;15.63;2.22;;;;;;;5.94;98.28;100028.75;5006436;28;20049;-83
2021/10/22 00:17:57;;;;;;;14.40;3.47;;;;;;;5.93;99.27;100021.00;5020883;28;20049;-79
2021/10/22 00:20:24;;;;;;;11.38;2.38;;;;;;;5.80;99.64;100018.09;4990725;28;20048;-84
2021/10/22 00:22:51;;;;;;;11.23;3.55;;;;;;;5.87;100.00;100031.72;4996482;28;20128;-79
2021/10/22 00:25:19;;;;;;;12.63;2.58;;;;;;;5.84;100.00;100030.94;5007696;28;20049;-81
2021/10/22 00:27:46;;;;;;;12.77;3.20;;;;;;;5.88;99.52;100025.56;4996145;28;20060;-79
2021/10/22 00:30:14;;;;;;;23.42;3.15;;;;;;;5.85;99.21;100031.78;5021509;28;20393;-77
2021/10/22 00:32:41;;;;;;;16.35;2.67;;;;;;;5.77;99.88;100024.34;4979662;28;20129;-87
2021/10/22 00:35:08;;;;;;;16.42;3.63;;;;;;;5.82;100.00;100029.34;5014186;28;20044;-78
2021/10/22 00:37:36;;;;;;;12.45;2.40;;;;;;;5.82;99.59;100031.94;4996201;28;20497;-87
2021/10/22 00:40:04;;;;;;;15.48;2.83;;;;;;;5.82;99.53;100032.78;5019728;28;20049;-80
2021/10/22 00:42:32;;;;;;;17.27;2.83;;;;;;;5.79;100.00;100032.09;5018474;28;20056;-78
2021/10/22 00:45:00;;;;;;;15.40;2.75;;;;;;;5.71;99.68;100037.69;5012635;28;20056;-80
2021/10/22 00:47:27;;;;;;;12.35;2.83;;;;;;;5.72;99.19;100035.91;4999870;28;20041;-83
2021/10/22 00:49:54;;;;;;;16.63;2.72;;;;;;;5.79;99.30;100040.78;5010263;28;20465;-81
2021/10/22 00:52:23;;;;;;;13.80;2.78;;;;;;;5.73;98.66;100041.06;4999737;28;20049;-80
2021/10/22 00:54:51;;;;;;;20.92;3.30;;;;;;;5.69;99.15;100044.75;5014061;28;20067;-82
2021/10/22 00:57:19;;;;;;;18.48;2.33;;;;;;;5.62;99.20;100038.13;5002926;28;20116;-79
2021/10/22 00:59:47;;;;;;;18.85;3.22;;;;;;;5.74;99.10;100047.16;5002010;28;20076;-82
2021/10/22 01:02:14;;;;;;;18.52;3.72;;;;;;;5.68;99.40;100042.22;5013915;28;20053;-81
2021/10/22 01:04:42;;;;;;;20.30;3.63;;;;;;;5.66;98.45;100044.03;5009664;28;20057;-78
2021/10/22 01:07:13;;;;;;;17.70;2.92;;;;;;;5.72;98.64;100041.13;4997493;28;20615;-78
2021/10/22 01:09:41;;;;;;;12.52;2.85;;;;;;;5.74;98.94;100036.69;4992892;28;20136;-87
2021/10/22 01:12:12;;;;;;;15.07;3.58;;;;;;;5.69;97.84;100046.53;5011004;28;20056;-87
2021/10/22 01:14:41;;;;;;;21.98;3.20;;;;;;;5.68;98.29;100047.44;5020960;28;20554;-81
2021/10/22 01:17:39;;;;;;;14.60;3.15;;;;;;;5.71;98.34;100036.84;4995660;28;20353;-85
2021/10/22 01:20:12;;;;;;;23.10;2.50;;;;;;;5.65;98.23;100032.75;4992438;28;20054;-85
2021/10/22 01:22:47;;;;;;;14.13;3.00;;;;;;;5.69;98.45;100036.91;5000038;28;20132;-83
2021/10/22 01:25:26;;;;;;;9.20;2.45;;;;;;;5.61;98.26;100044.28;5012561;28;20052;-85
2021/10/22 01:27:54;;;;;;;12.27;2.03;;;;;;;5.61;99.17;100049.50;4998557;28;20082;-80
2021/10/22 01:30:23;;;;;;;12.60;2.60;;;;;;;5.60;98.46;100055.63;4994228;28;20052;-81
2021/10/22 01:32:59;;;;;;;15.05;3.10;;;;;;;5.56;99.57;100054.09;5015706;28;20128;-81
2021/10/22 01:35:27;;;;;;;18.98;2.60;;;;;;;5.53;98.75;100057.69;4979487;28;20362;-84
2021/10/22 01:37:54;;;;;;;17.02;2.33;;;;;;;5.62;98.90;100052.94;5018212;28;20067;-82
2021/10/22 01:40:21;;;;;;;21.58;3.28;;;;;;;5.55;98.60;100050.63;5011915;28;20050;-83
2021/10/22 01:42:48;;;;;;;16.13;2.65;;;;;;;5.61;98.79;100048.66;5032018;28;20053;-81
2021/10/22 01:45:16;;;;;;;23.25;3.20;;;;;;;5.51;98.19;100050.84;5008226;28;20065;-79
2021/10/22 01:47:44;;;;;;;12.82;2.88;;;;;;;5.44;99.61;100058.09;4982594;28;20512;-82
2021/10/22 01:50:11;;;;;;;13.55;2.83;;;;;;;5.48;100.00;100049.22;4988531;28;20049;-83
2021/10/22 01:52:39;;;;;;;13.45;2.42;;;;;;;5.49;99.91;100050.94;4981440;28;20058;-83
2021/10/22 01:55:07;;;;;;;15.20;3.15;;;;;;;5.57;99.07;100051.41;5008924;28;20513;-80
2021/10/22 01:57:34;;;;;;;19.58;3.88;;;;;;;5.57;98.80;100059.22;5009825;28;20057;-83
2021/10/22 02:00:03;;;;;;;22.33;3.13;;;;;;;5.56;98.58;100064.53;5010940;28;20446;-81
2021/10/22 02:02:30;;;;;;;24.60;3.42;;;;;;;5.59;99.09;100064.41;5016773;28;20058;-83
2021/10/22 02:05:00;;;;;;;17.00;2.75;;;;;;;5.49;98.70;100071.81;5042555;28;20050;-83
2021/10/22 02:07:28;;;;;;;21.63;2.67;;;;;;;5.64;99.30;100069.41;5034037;28;20072;-77
2021/10/22 02:09:55;;;;;;;14.15;2.80;;;;;;;5.63;98.48;100071.16;4992718;28;20044;-76
2021/10/22 02:12:22;;;;;;;17.42;3.80;;;;;;;5.62;98.92;100068.63;4999643;28;20088;-81
2021/10/22 02:14:49;;;;;;;12.65;2.67;;;;;;;5.55;98.05;100066.31;5011412;28;20419;-82
2021/10/22 02:17:16;;;;;;;14.70;3.30;;;;;;;5.52;98.80;100078.66;5032375;28;20527;-77
2021/10/22 02:19:44;;;;;;;20.00;3.72;;;;;;;5.43;98.94;100072.09;5004580;28;20053;-82
2021/10/22 02:22:11;;;;;;;14.18;3.00;;;;;;;5.47;99.41;100073.63;4993561;28;20061;-86
2021/10/22 02:24:38;;;;;;;19.20;4.65;;;;;;;5.51;99.44;100074.34;5015392;28;20395;-85
2021/10/22 02:27:05;;;;;;;13.95;2.60;;;;;;;5.52;98.95;100079.50;4998166;28;20052;-81
2021/10/22 02:29:33;;;;;;;19.48;3.80;;;;;;;5.53;99.22;100073.34;5006658;28;20393;-82
2021/10/22 02:32:00;;;;;;;16.42;2.80;;;;;;;5.49;98.72;100073.56;5013466;28;20055;-79
2021/10/22 02:34:27;;;;;;;20.98;3.40;;;;;;;5.45;100.00;100072.00;5011506;28;20049;-82
2021/10/22 02:36:54;;;;;;;14.65;2.53;;;;;;;5.54;99.19;100069.84;4993633;28;20053;-82
2021/10/22 02:39:21;;;;;;;13.57;2.50;;;;;;;5.59;99.15;100073.06;5017976;28;20049;-81
2021/10/22 02:41:48;;;;;;;18.63;3.97;;;;;;;5.53;98.81;100075.09;5014990;28;20404;-87
2021/10/22 02:44:16;;;;;;;16.55;2.65;;;;;;;5.58;98.60;100078.34;5004392;28;20049;-85
2021/10/22 02:46:43;;;;;;;19.52;3.65;;;;;;;5.71;98.14;100073.41;5027626;28;20056;-85
2021/10/22 02:49:10;;;;;;;19.85;3.45;;;;;;;5.73;98.37;100080.25;5005120;28;20076;-85
2021/10/22 02:51:37;;;;;;;18.63;3.38;;;;;;;5.65;97.51;100084.16;5015352;28;20076;-85
2021/10/22 02:54:04;;;;;;;16.52;3.03;;;;;;;5.83;97.67;100076.28;5035721;28;20049;-85
2021/10/22 02:56:31;;;;;;;20.23;3.03;;;;;;;5.79;96.41;100084.34;5031065;28;20109;-80
2021/10/22 02:58:59;;;;;;;21.20;3.65;;;;;;;5.89;97.07;100082.97;4997904;28;20072;-87
2021/10/22 03:01:26;;;;;;;15.18;2.40;;;;;;;5.87;96.70;100082.19;5005879;28;20038;-80
2021/10/22 03:03:53;;;;;;;22.02;4.25;;;;;;;5.87;97.26;100076.13;5014792;28;20049;-80
2021/10/22 03:06:20;;;;;;;13.88;2.95;;;;;;;5.71;97.57;100086.44;5002900;28;20041;-78
2021/10/22 03:08:48;;;;;;;15.60;2.88;;;;;;;5.85;96.88;100081.41;5004625;28;20567;-83
2021/10/22 03:11:15;;;;;;;16.25;3.00;;;;;;;5.70;97.56;100074.31;4981425;28;20309;-85
2021/10/22 03:13:42;;;;;;;21.92;3.17;;;;;;;5.86;96.84;100088.34;4998832;28;20046;-79
2021/10/22 03:16:09;;;;;;;19.38;3.55;;;;;;;5.94;96.58;100086.22;5014356;28;20173;-84
2021/10/22 03:18:36;;;;;;;13.50;2.45;;;;;;;5.90;96.50;100082.06;5004332;28;20064;-80
2021/10/22 03:21:04;;;;;;;16.38;3.17;;;;;;;6.04;95.87;100091.88;5015652;28;20259;-83
2021/10/22 03:23:31;;;;;;;14.18;2.40;;;;;;;6.03;96.93;100085.81;5018096;28;20061;-81
2021/10/22 03:25:58;;;;;;;18.70;3.50;;;;;;;6.05;95.94;100086.56;5002970;28;20044;-81
2021/10/22 03:28:25;;;;;;;17.77;2.92;;;;;;;5.93;95.86;100089.75;4996505;28;20060;-81
2021/10/22 03:30:53;;;;;;;20.23;2.95;;;;;;;6.12;96.42;100091.47;4994923;28;20080;-87
2021/10/22 03:33:20;;;;;;;18.48;3.15;;;;;;;6.14;95.39;100093.13;5016373;28;20041;-83
2021/10/22 03:35:47;;;;;;;19.70;3.67;;;;;;;6.08;95.07;100082.97;5012473;28;20042;-81
2021/10/22 03:38:16;;;;;;;13.68;2.88;;;;;;;5.97;95.87;100082.63;5014712;28;20044;-83
2021/10/22 03:40:43;;;;;;;20.42;3.50;;;;;;;6.03;96.92;100085.81;5009729;28;20504;-80
2021/10/22 03:43:10;;;;;;;17.73;3.47;;;;;;;5.87;96.21;100073.53;4999608;28;20048;-89
2021/10/22 03:45:37;;;;;;;15.77;3.45;;;;;;;5.88;96.67;100083.03;4995124;28;20038;-80
2021/10/22 03:48:04;;;;;;;12.95;2.47;;;;;;;5.95;95.68;100093.16;5031577;28;20378;-87
2021/10/22 03:50:32;;;;;;;19.70;3.08;;;;;;;5.99;95.39;100084.25;5011250;28;20073;-81
2021/10/22 03:52:59;;;;;;;11.88;2.50;;;;;;;5.81;96.16;100085.97;4996409;28;20061;-77
2021/10/22 03:55:26;;;;;;;14.95;2.85;;;;;;;5.90;96.15;100074.22;5013289;28;20212;-82
2021/10/22 03:57:53;;;;;;;17.80;2.60;;;;;;;5.95;96.21;100090.56;5013227;28;20044;-82
2021/10/22 04:00:20;;;;;;;13.27;2.80;;;;;;;5.98;95.34;100082.53;5009451;28;20133;-85
2021/10/22 04:02:48;;;;;;;15.48;2.70;;;;;;;5.87;96.22;100079.59;5021420;28;20073;-78
2021/10/22 04:05:15;;;;;;;11.23;2.17;;;;;;;6.06;95.80;100079.56;5009616;28;20074;-83
2021/10/22 04:07:43;;;;;;;11.85;2.75;;;;;;;5.97;95.68;100086.09;4984758;28;20045;-82
2021/10/22 04:10:10;;;;;;;13.65;2.40;;;;;;;6.02;95.56;100078.88;5007863;28;20053;-80
2021/10/22 04:12:37;;;;;;;12.38;2.95;;;;;;;6.06;94.63;100084.78;4996406;28;20053;-78
2021/10/22 04:15:05;;;;;;;17.30;2.78;;;;;;;5.99;95.41;100079.03;5009285;28;20049;-81
2021/10/22 04:17:32;;;;;;;13.57;2.72;;;;;;;6.02;95.65;100078.88;5014093;28;20135;-87
2021/10/22 04:19:59;;;;;;;20.77;3.00;;;;;;;6.02;95.80;100080.63;5008144;28;20060;-86
2021/10/22 04:22:26;;;;;;;14.77;2.72;;;;;;;5.96;95.28;100083.56;5033908;28;20500;-86
2021/10/22 04:24:53;;;;;;;20.05;4.05;;;;;;;5.95;95.72;100085.34;4974752;28;20446;-84
2021/10/22 04:27:21;;;;;;;12.20;2.70;;;;;;;5.93;95.88;100081.94;4978114;28;20042;-87
2021/10/22 04:29:48;;;;;;;16.52;2.83;;;;;;;5.84;96.08;100084.94;4989868;28;20060;-81
2021/10/22 04:32:15;;;;;;;8.30;2.55;;;;;;;5.91;96.78;100081.13;5011407;28;20049;-81
2021/10/22 04:34:42;;;;;;;15.75;2.38;;;;;;;5.91;96.28;100083.75;4989709;28;20153;-81
2021/10/22 04:42:45;;;;;;;15.02;2.80;;;;;;;6.04;95.52;100089.25;5016245;28;20541;-80
2021/10/22 04:45:13;;;;;;;13.73;2.70;;;;;;;5.98;95.74;100082.53;5002802;28;20037;-84
2021/10/22 04:47:40;;;;;;;15.90;3.60;;;;;;;6.01;95.50;100077.19;5027277;28;20409;-83
2021/10/22 04:50:09;;;;;;;17.25;2.60;;;;;;;6.00;95.77;100075.50;4995327;28;20053;-81
2021/10/22 04:52:37;;;;;;;18.73;2.53;;;;;;;5.97;95.73;100080.84;5002835;28;20470;-85
2021/10/22 04:55:06;;;;;;;12.60;3.00;;;;;;;6.03;95.01;100080.59;5011608;28;20100;-82
2021/10/22 04:57:34;;;;;;;14.80;2.95;;;;;;;6.10;94.79;100083.72;5010610;28;20056;-82
2021/10/22 05:00:04;;;;;;;15.50;3.33;;;;;;;6.01;95.71;100078.94;5010745;28;20423;-81
2021/10/22 05:02:31;;;;;;;8.30;2.20;;;;;;;6.09;94.70;100076.81;5019198;28;20046;-79
2021/10/22 05:04:59;;;;;;;11.75;2.63;;;;;;;5.96;95.47;100080.94;5014281;28;20042;-84
2021/10/22 05:07:26;;;;;;;13.07;2.10;;;;;;;6.04;94.88;100081.44;4984973;28;20049;-82
2021/10/22 05:09:53;;;;;;;16.10;2.63;;;;;;;6.07;95.02;100084.72;5025391;28;20050;-82
2021/10/22 05:12:22;;;;;;;14.88;3.00;;;;;;;5.99;95.65;100086.88;5019788;28;20136;-87
2021/10/22 05:14:49;;;;;;;10.45;2.45;;;;;;;5.94;96.17;100090.59;5038195;28;20049;-81
2021/10/22 05:17:17;;;;;;;15.07;3.03;;;;;;;6.03;95.58;100088.41;5001130;28;20049;-80
2021/10/22 05:19:45;;;;;;;12.80;2.95;;;;;;;6.01;95.33;100081.56;4994959;28;20046;-81
2021/10/22 05:22:12;;;;;;;16.23;2.00;;;;;;;6.03;95.63;100085.81;5014030;28;20057;-83
2021/10/22 05:24:40;;;;;;;14.65;2.30;;;;;;;6.02;95.37;100073.63;4998402;28;20100;-80
2021/10/22 05:27:09;;;;;;;14.25;2.42;;;;;;;5.94;95.77;100078.38;5017376;28;20049;-82
2021/10/22 05:29:36;;;;;;;10.30;2.47;;;;;;;5.91;95.87;100075.06;4999921;28;20461;-81
2021/10/22 05:32:03;;;;;;;15.40;4.18;;;;;;;5.91;95.45;100081.13;4988693;28;20084;-82
2021/10/22 05:34:30;;;;;;;11.00;2.13;;;;;;;5.92;95.87;100072.41;5020829;28;20063;-82
2021/10/22 05:36:58;;;;;;;16.77;2.53;;;;;;;5.87;96.48;100073.53;5059148;28;20057;-82
2021/10/22 05:39:25;;;;;;;14.70;2.95;;;;;;;5.81;95.99;100072.91;5012904;28;20058;-79
2021/10/22 05:41:53;;;;;;;13.73;2.63;;;;;;;5.84;96.56;100077.13;5023517;28;20144;-81
2021/10/22 05:44:20;;;;;;;17.17;2.55;;;;;;;5.83;96.63;100078.03;4994362;28;20155;-82
2021/10/22 05:46:50;;;;;;;22.50;2.65;;;;;;;5.83;96.19;100071.03;4996822;28;20049;-85
2021/10/22 05:49:17;;;;;;;22.77;3.58;;;;;;;5.88;95.83;100075.22;5020735;28;20046;-81
2021/10/22 05:51:44;;;;;;;20.67;3.72;;;;;;;5.91;95.97;100070.69;4980307;28;20069;-81
2021/10/22 05:54:11;;;;;;;12.23;3.08;;;;;;;5.90;95.40;100069.00;5027306;28;20049;-84
2021/10/22 05:56:39;;;;;;;15.45;2.97;;;;;;;5.90;94.91;100083.81;5001170;28;20073;-81
2021/10/22 05:59:06;;;;;;;12.57;3.22;;;;;;;5.93;95.28;100068.88;4989269;28;20128;-88
2021/10/22 06:01:34;;;;;;;13.68;2.42;;;;;;;6.11;94.94;100074.97;4995216;28;20038;-86
2021/10/22 06:04:01;;;;;;;15.27;3.47;;;;;;;6.09;94.50;100072.44;5009895;28;20052;-86
2021/10/22 06:06:29;;;;;;;13.55;3.25;;;;;;;6.13;93.66;100064.44;5006309;28;20044;-83
2021/10/22 06:08:58;;;;;;;15.30;2.33;;;;;;;6.25;93.56;100075.13;5005700;28;20056;-78
2021/10/22 06:11:25;;;;;;;14.18;2.17;;;;;;;6.46;92.00;100067.97;5004690;28;20092;-81
2021/10/22 06:13:53;;;;;;;13.95;2.67;;;;;;;6.47;91.46;100077.50;4998623;28;20053;-84
2021/10/22 06:16:20;;;;;;;10.05;2.40;;;;;;;6.51;90.96;100076.44;4999173;28;20061;-82
2021/10/22 06:18:48;;;;;;;13.75;2.38;;;;;;;6.76;90.08;100072.56;5011817;28;20053;-80
2021/10/22 06:21:32;;;;;;;13.32;2.75;;;;;;;6.94;88.79;100076.00;4998016;28;20060;-81
2021/10/22 06:26:31;;;;;;;19.02;3.60;;;;;;;7.12;86.70;100064.53;5008511;28;20072;-86
2021/10/22 06:29:00;;;;;;;12.80;2.40;;;;;;;7.18;86.76;100069.44;4981164;28;20051;-87
2021/10/22 06:31:28;;;;;;;14.35;2.60;;;;;;;7.26;86.49;100084.75;5015042;28;20044;-80
2021/10/22 06:33:55;;;;;;;16.70;3.60;;;;;;;7.04;86.78;100075.41;5000192;28;20049;-85
2021/10/22 06:36:26;;;;;;;15.07;3.25;;;;;;;7.04;86.30;100070.19;4995454;28;20058;-81
2021/10/22 06:38:53;;;;;;;16.45;3.45;;;;;;;7.07;86.19;100077.88;5015747;28;20057;-81
2021/10/22 06:41:21;;;;;;;13.25;2.40;;;;;;;7.08;85.51;100084.81;5006251;28;20041;-83
2021/10/22 06:43:48;;;;;;;21.38;3.13;;;;;;;7.25;84.92;100073.44;5015607;28;20046;-80
2021/10/22 06:46:16;;;;;;;11.68;2.75;;;;;;;7.40;83.95;100069.13;5015879;28;20052;-91
2021/10/22 06:48:44;;;;;;;14.98;2.70;;;;;;;7.47;83.64;100072.25;5016721;28;20049;-84
2021/10/22 06:51:13;;;;;;;19.17;3.00;;;;;;;7.48;84.49;100073.97;4997707;28;20181;-84
2021/10/22 06:53:41;;;;;;;17.70;2.90;;;;;;;7.64;84.09;100073.94;4997500;28;20382;-80
2021/10/22 06:56:08;;;;;;;26.88;3.22;;;;;;;7.48;82.96;100079.19;5018781;28;20053;-85
2021/10/22 06:58:35;;;;;;;16.25;2.95;;;;;;;7.39;82.85;100077.06;5012776;28;20053;-81
2021/10/22 07:01:02;;;;;;;13.27;2.38;;;;;;;7.55;82.45;100081.38;4999909;28;20050;-81
2021/10/22 07:03:38;;;;;;;13.57;3.20;;;;;;;7.71;81.54;100073.53;4991449;28;20125;-82
2021/10/22 07:08:53;;;;;;;11.55;2.00;;;;;;;7.55;80.83;100065.66;5017121;28;20045;-84
2021/10/22 07:11:22;;;;;;;10.73;2.10;;;;;;;7.78;80.10;100072.22;4981617;28;20038;-81
2021/10/22 07:13:52;;;;;;;13.68;2.75;;;;;;;7.67;80.06;100073.78;5006369;28;20477;-83
2021/10/22 07:16:21;;;;;;;12.15;1.90;;;;;;;7.76;80.75;100074.09;4994938;28;20048;-81
2021/10/22 07:18:50;;;;;;;12.48;2.63;;;;;;;7.69;80.27;100066.66;4996796;28;20077;-83
2021/10/22 07:21:18;;;;;;;10.93;2.28;;;;;;;7.81;79.42;100072.06;4976157;28;20047;-81
2021/10/22 07:23:48;;;;;;;8.13;2.08;;;;;;;8.03;78.15;100065.63;4975981;28;20053;-84
2021/10/22 07:26:18;;;;;;;16.00;3.17;;;;;;;8.10;78.46;100069.56;4998954;28;20535;-84
2021/10/22 07:28:45;;;;;;;9.70;2.80;;;;;;;7.98;78.53;100072.91;4985064;28;20072;-82
2021/10/22 07:31:13;;;;;;;17.20;3.30;;;;;;;8.02;78.59;100062.16;5007578;28;20041;-82
2021/10/22 07:34:07;;;;;;;12.05;2.33;;;;;;;8.13;77.53;100059.75;5013243;28;21105;-82
2021/10/22 07:36:35;;;;;;;13.10;2.10;;;;;;;8.12;78.45;100055.44;4995056;28;20103;-84
2021/10/22 07:39:06;;;;;;;19.02;3.20;;;;;;;8.22;77.48;100061.00;4995677;28;20046;-84
2021/10/22 07:41:56;;;;;;;18.25;2.47;;;;;;;7.94;78.20;100066.97;5006395;28;20120;-80
2021/10/22 07:44:44;;;;;;;17.13;2.47;;;;;;;8.09;78.76;100066.09;5023080;28;20068;-82
2021/10/22 07:47:11;;;;;;;14.23;2.70;;;;;;;8.15;77.17;100058.81;5000080;28;20054;-82
2021/10/22 07:49:38;;;;;;;14.73;2.90;;;;;;;8.12;77.43;100065.09;5016926;28;20046;-80
2021/10/22 07:52:05;;;;;;;16.20;2.35;;;;;;;8.12;77.49;100057.22;5007546;28;20060;-83
2021/10/22 07:54:33;;;;;;;12.93;2.00;;;;;;;8.09;77.38;100055.59;5005625;28;20570;-80
2021/10/22 07:57:00;;;;;;;23.63;3.30;;;;;;;8.25;76.55;100050.34;5029558;28;20085;-82
2021/10/22 08:00:08;;;;;;;11.45;2.60;;;;;;;8.05;77.80;100059.34;5018282;28;20385;-83
2021/10/22 08:02:35;;;;;;;13.18;2.35;;;;;;;7.96;78.06;100056.41;5000701;28;20045;-81
2021/10/22 08:05:05;;;;;;;16.63;3.22;;;;;;;8.11;77.21;100059.00;4995896;28;20075;-78
2021/10/22 08:07:36;;;;;;;9.57;2.30;;;;;;;8.12;77.42;100055.44;5002073;28;20056;-80
2021/10/22 08:10:05;;;;;;;11.88;2.28;;;;;;;7.87;78.03;100058.59;5033012;28;20459;-82
2021/10/22 08:12:33;;;;;;;13.23;2.47;;;;;;;7.90;78.19;100054.13;4989166;28;20037;-78
2021/10/22 08:15:01;;;;;;;11.45;2.42;;;;;;;7.82;78.20;100054.56;5039559;28;20077;-82
2021/10/22 08:17:28;;;;;;;12.93;3.17;;;;;;;7.98;76.45;100054.56;4977119;28;20132;-80
2021/10/22 08:20:03;;;;;;;13.60;2.83;;;;;;;7.96;77.07;100054.63;4998119;28;20045;-87
2021/10/22 08:22:31;;;;;;;13.25;2.60;;;;;;;8.04;76.69;100051.56;5004943;28;20049;-83
2021/10/22 08:25:06;;;;;;;12.82;2.63;;;;;;;7.83;78.12;100036.16;5014717;28;20292;-81
2021/10/22 08:27:36;;;;;;;11.95;2.22;;;;;;;7.94;77.50;100039.94;5005337;28;20172;-80
2021/10/22 08:30:05;;;;;;;15.77;3.75;;;;;;;7.96;76.79;100038.06;4981592;28;20084;-81
2021/10/22 08:32:33;;;;;;;11.23;3.00;;;;;;;8.06;76.11;100044.44;5015538;28;20064;-79
2021/10/22 08:35:07;;;;;;;11.93;2.42;;;;;;;7.96;77.00;100038.88;4995228;28;20054;-78
2021/10/22 08:37:36;;;;;;;14.32;2.45;;;;;;;8.18;75.58;100048.16;4981393;28;20052;-81
2021/10/22 08:40:07;;;;;;;11.70;2.33;;;;;;;8.45;77.67;100022.94;5014007;28;20041;-79
2021/10/22 08:42:34;;;;;;;14.18;2.70;;;;;;;8.36;74.37;100021.72;5014763;28;20507;-80
2021/10/22 08:45:03;;;;;;;15.13;2.85;;;;;;;8.51;74.04;100019.97;5019110;28;20045;-82
2021/10/22 08:47:31;;;;;;;12.07;2.90;;;;;;;8.38;74.47;100029.50;4996614;28;20053;-78
2021/10/22 08:50:01;;;;;;;10.05;2.13;;;;;;;8.53;74.08;100025.97;5011789;28;20068;-79
2021/10/22 08:52:29;;;;;;;20.73;3.05;;;;;;;8.46;74.41;100016.75;5003614;28;20511;-78
2021/10/22 08:54:59;;;;;;;13.88;2.72;;;;;;;8.33;74.20;100023.63;5012987;28;20456;-85
2021/10/22 08:57:27;;;;;;;17.08;2.92;;;;;;;8.53;73.87;100006.75;5019293;28;20080;-81
2021/10/22 08:59:58;;;;;;;14.98;2.72;;;;;;;8.54;73.78;100008.44;5013660;28;20149;-81
2021/10/22 09:02:26;;;;;;;6.63;1.88;;;;;;;8.65;73.70;100016.53;5031808;28;20064;-80
2021/10/22 09:04:59;;;;;;;10.77;2.17;;;;;;;8.75;73.16;100012.38;4984252;28;20056;-89
2021/10/22 09:07:44;;;;;;;10.13;2.90;;;;;;;9.00;72.25;100001.19;4998534;28;20050;-83
2021/10/22 09:10:20;;;;;;;11.15;2.45;;;;;;;8.84;72.40;100006.56;4981017;28;20124;-82
2021/10/22 09:12:53;;;;;;;14.10;3.28;;;;;;;8.98;71.76;100008.34;4996617;28;20053;-81
2021/10/22 09:15:29;;;;;;;14.65;2.63;;;;;;;8.77;72.75;100013.13;5033456;28;20053;-84
2021/10/22 09:17:57;;;;;;;13.85;3.47;;;;;;;9.29;71.64;99996.75;4986636;28;20080;-83
2021/10/22 09:20:26;;;;;;;11.50;2.63;;;;;;;9.30;71.16;100002.84;5006128;28;20057;-83
2021/10/22 09:22:55;;;;;;;13.57;2.63;;;;;;;9.35;71.42;100006.88;5021367;28;20140;-81
2021/10/22 09:25:26;;;;;;;11.15;2.33;;;;;;;9.86;69.49;100006.22;4999311;28;20078;-85
2021/10/22 09:27:57;;;;;;;10.93;2.70;;;;;;;9.79;68.67;100010.22;5017603;28;20076;-82
2021/10/22 09:30:25;;;;;;;15.98;2.78;;;;;;;9.49;70.31;100007.78;4996873;28;20377;-82
2021/10/22 09:32:54;;;;;;;21.08;3.10;;;;;;;9.08;71.22;100001.56;5035651;28;20053;-78
2021/10/22 09:35:43;;;;;;;9.43;2.70;;;;;;;9.03;71.71;100016.78;5000280;28;20045;-78
2021/10/22 09:38:25;;;;;;;13.95;3.05;;;;;;;9.02;72.03;100004.59;5000684;28;20041;-84
2021/10/22 09:41:06;;;;;;;21.70;3.17;;;;;;;8.76;73.65;99997.47;5027715;28;20068;-80
2021/10/22 09:43:43;;;;;;;8.07;2.35;;;;;;;8.72;74.62;100004.69;5024250;28;20122;-81
2021/10/22 09:46:21;;;;;;;13.27;2.25;;;;;;;8.94;74.51;100006.84;5013936;28;20064;-78
2021/10/22 09:48:56;;;;;;;8.93;2.60;;;;;;;9.00;74.55;99985.44;5015661;28;20076;-78
2021/10/22 09:51:35;;;;;;;12.07;2.55;;;;;;;9.07;72.39;99985.94;5018799;28;20045;-82
2021/10/22 09:54:08;;;;;;;10.37;2.40;;;;;;;9.23;72.05;99983.16;5032840;28;20563;-88
2021/10/22 09:56:41;;;;;;;15.90;3.05;;;;;;;9.03;73.17;99989.69;4987036;28;20053;-83
2021/10/22 09:59:10;;;;;;;15.95;3.30;;;;;;;9.11;72.17;99984.78;4998043;28;20154;-87
2021/10/22 10:01:43;;;;;;;11.25;2.55;;;;;;;8.98;72.68;99994.38;5008509;28;20212;-84
2021/10/22 10:04:12;;;;;;;13.55;3.42;;;;;;;8.95;72.40;99987.53;5038161;28;20045;-84
2021/10/22 10:07:00;;;;;;;11.85;2.78;;;;;;;8.80;73.00;99988.50;5021043;28;20076;-80
2021/10/22 10:09:28;;;;;;;9.50;2.63;;;;;;;9.11;72.03;99990.06;5025227;28;20047;-81
2021/10/22 10:12:01;;;;;;;15.48;2.88;;;;;;;9.27;73.10;99979.41;5015550;28;20057;-79
2021/10/22 10:14:31;;;;;;;10.63;2.65;;;;;;;9.07;74.85;99978.06;4994143;28;20103;-80
2021/10/22 10:17:00;;;;;;;15.15;3.05;;;;;;;9.06;75.04;99982.47;5001717;28;20041;-80
2021/10/22 10:19:39;;;;;;;14.93;2.75;;;;;;;9.09;73.93;99984.88;4997248;28;20485;-82
2021/10/22 10:22:09;;;;;;;9.25;2.63;;;;;;;9.09;73.74;99973.53;4997147;28;20128;-85
2021/10/22 10:24:42;;;;;;;12.20;2.65;;;;;;;9.09;73.26;99981.41;5001505;28;20045;-78
2021/10/22 10:27:19;;;;;;;9.95;2.53;;;;;;;9.25;72.11;99966.38;4999632;28;20141;-80
2021/10/22 10:30:00;;;;;;;9.73;2.53;;;;;;;9.01;73.11;99970.56;5009496;28;20030;-80
2021/10/22 10:32:29;;;;;;;11.40;2.28;;;;;;;9.16;71.80;99969.59;5027909;28;20048;-80
2021/10/22 10:35:02;;;;;;;11.30;2.90;;;;;;;9.17;72.60;99959.94;5018316;28;20041;-84
2021/10/22 10:37:37;;;;;;;12.57;2.13;;;;;;;9.36;72.40;99965.69;5032773;28;20052;-77
2021/10/22 10:40:13;;;;;;;8.45;2.47;;;;;;;9.02;72.44;99964.38;5012245;28;20152;-81
2021/10/22 10:42:47;;;;;;;11.05;2.25;;;;;;;9.04;72.34;99975.59;5029346;28;20033;-84
2021/10/22 10:45:24;;;;;;;9.23;2.17;;;;;;;9.07;72.70;99965.75;5011341;28;20051;-79
2021/10/22 10:48:02;;;;;;;11.35;2.65;;;;;;;9.04;72.63;99952.81;5030786;28;20046;-81
2021/10/22 10:51:06;;;;;;;9.75;2.45;;;;;;;9.18;71.38;99961.59;5026382;28;20083;-82
2021/10/22 10:53:41;;;;;;;14.10;2.45;;;;;;;8.86;73.17;99964.47;4990483;28;20485;-81
2021/10/22 10:56:34;;;;;;;8.93;2.20;;;;;;;9.07;72.72;99957.03;4990610;28;20068;-79
2021/10/22 10:59:01;;;;;;;11.45;2.90;;;;;;;9.22;72.81;99952.59;4984441;28;20141;-88
2021/10/22 11:01:33;;;;;;;13.00;2.90;;;;;;;8.85;74.25;99955.75;4982828;28;20069;-79
2021/10/22 11:04:03;;;;;;;10.82;3.63;;;;;;;8.95;74.55;99948.16;4998095;28;20048;-89
2021/10/22 11:06:35;;;;;;;14.40;3.35;;;;;;;8.92;75.26;99940.50;4993056;28;20137;-82
2021/10/22 11:09:04;;;;;;;9.93;2.83;;;;;;;8.83;80.31;99952.41;5033600;28;20080;-89
2021/10/22 11:11:38;;;;;;;9.73;2.85;;;;;;;8.98;77.20;99939.25;5010540;28;20080;-80
2021/10/22 11:14:05;;;;;;;10.98;2.30;;;;;;;8.96;75.86;99935.88;5011936;28;20037;-85
2021/10/22 11:16:44;;;;;;;10.52;2.42;;;;;;;9.04;75.61;99944.09;5001499;28;20056;-80
2021/10/22 11:19:19;;;;;;;12.50;2.08;;;;;;;8.99;74.66;99933.91;5011107;28;20051;-78
2021/10/22 11:21:49;;;;;;;10.43;2.60;;;;;;;9.12;74.79;99940.06;4995001;28;20065;-82
2021/10/22 11:24:18;;;;;;;7.60;2.10;;;;;;;9.11;74.76;99935.75;4990779;28;20061;-78
2021/10/22 11:27:03;;;;;;;20.13;3.13;;;;;;;9.14;74.30;99924.22;5014911;28;20118;-78
2021/10/22 11:29:35;;;;;;;8.07;2.08;;;;;;;9.15;74.26;99920.66;5010023;28;20145;-80
2021/10/22 11:32:10;;;;;;;12.98;2.80;;;;;;;9.19;73.09;99921.28;5005495;28;20144;-87
2021/10/22 11:34:58;;;;;;;6.50;2.28;;;;;;;9.28;72.52;99912.81;5009186;28;20037;-82
2021/10/22 11:37:31;;;;;;;10.32;2.15;;;;;;;9.27;73.41;99914.56;4996831;28;20472;-80
2021/10/22 11:40:01;;;;;;;10.18;2.05;;;;;;;9.42;71.66;99907.50;5002200;28;20041;-86
2021/10/22 11:42:32;;;;;;;12.98;2.88;;;;;;;9.54;71.39;99906.69;4998309;28;20451;-83
2021/10/22 11:45:12;;;;;;;10.05;2.22;;;;;;;9.57;70.55;99888.09;5016392;28;20048;-80
2021/10/22 11:47:43;;;;;;;11.25;2.17;;;;;;;9.57;70.63;99898.59;5028482;28;20128;-82
2021/10/22 11:50:12;;;;;;;10.27;2.45;;;;;;;9.71;70.08;99881.06;5012089;28;20048;-80